Terminal Aerodrome Forecast
Issued by NWS

Home | Current Version | Previous Version | Text Only | Print | Product List | Glossary On
Versions: 1 2 3 4 5 6 7 8 9 10 11 12 13 14 15
258
FTUS46 KMTR 300527
TAFMRY
TAF
KMRY 300527Z 3006/3106 24008KT P6SM SCT012 SCT250
      TEMPO 3006/3007 BKN008 OVC010
     FM300700 25004KT 6SM -DZ BR OVC008
     FM301700 25005KT P6SM SCT015 SCT200
     FM302100 29015G22KT P6SM FEW015 SCT250
     FM310300 28010KT P6SM FEW012 SCT250=

USA.gov is the U.S. government's official web portal to all federal, state and local government web resources and services.